Flight Track Log - Related Links

Times and Time Zones

All times are in EDT time to prevent confusion due to time zone crossing. See the OPT905 flight status page for this flight to view local times or setup timezone preferences in your user account.

Time Position Orientation Groundspeed Altitude Reporting Facility
EDT Latitude Longitude Course Direction KTS MPH feet Rate Location/Type
Tue 09:57:42 PM 42.3667 -70.9667 277° West 190 219 700  Level KA90
Tue 09:59:52 PM 42.4011 -70.8067 74° East 234 269 7,200 2,921 Climbing Boston Center
Tue 10:00:53 PM 42.4653 -70.7683 24° Northeast 223 257 10,000 2,705 Climbing Boston Center
Tue 10:01:54 PM 42.5306 -70.8200 330° Northwest 206 237 12,700 2,542 Climbing Boston Center
Tue 10:02:51 PM 42.5736 -70.9092 303° West 229 264 15,000 2,410 Climbing Boston Center
Tue 10:03:00 PM 42.3369 -71.7868 277° West  Level Estimated
Tue 10:03:51 PM 42.6225 -70.9956 308° West 296 341 17,400  Level Boston Center
Tue 10:04:51 PM 42.6822 -71.0958 309° West 310 357 19,800 2,200 Climbing Boston Center
Tue 10:05:51 PM 42.7353 -71.1936 306° West 315 362 21,800 1,537 Climbing Boston Center
Tue 10:06:52 PM 42.7867 -71.3056 302° West 329 379 22,900 1,377 Climbing Boston Center
Tue 10:07:53 PM 42.8025 -71.4439 279° West 351 404 24,600 1,800 Climbing Boston Center
Tue 10:08:52 PM 42.8097 -71.5742 274° West 357 411 26,500 1,950 Climbing Boston Center
Tue 10:09:53 PM 42.8253 -71.7153 279° West 371 427 28,500 1,966 Climbing Boston Center
Tue 10:10:51 PM 42.8367 -71.8542 276° West 371 427 30,400 1,983 Climbing Boston Center
Tue 10:11:51 PM 42.8517 -71.9928 278° West 371 427 32,400 1,934 Climbing Boston Center
Tue 10:12:52 PM 42.8628 -72.1314 276° West 371 427 34,300 1,900 Climbing Boston Center
Tue 10:13:51 PM 42.8817 -72.2842 280° West 371 427 36,200 1,672 Climbing Boston Center
Tue 10:14:54 PM 42.8922 -72.4231 276° West 371 427 37,700 885 Climbing Boston Center
Tue 10:15:53 PM 42.9089 -72.5592 280° West 371 427 38,000 153 Climbing Boston Center
Tue 10:16:52 PM 42.9108 -72.7036 271° West 371 427 38,000  Level Boston Center
Tue 10:17:52 PM 42.9247 -72.8542 277° West 389 448 38,000  Level Boston Center
Tue 10:18:53 PM 42.9347 -72.9733 277° West 394 453 38,000  Level Boston Center
Tue 10:19:53 PM 42.9525 -73.1408 278° West 404 465 38,000  Level Boston Center
Tue 10:20:51 PM 42.9642 -73.2942 276° West 410 472 38,000  Level Boston Center
Tue 10:21:51 PM 42.9731 -73.4617 274° West 410 472 38,000  Level Boston Center
Tue 10:22:53 PM 42.9861 -73.6208 276° West 410 472 38,000  Level Boston Center
Tue 10:23:53 PM 42.9947 -73.7769 274° West 415 478 38,000  Level Boston Center
Tue 10:24:53 PM 43.0097 -73.9336 278° West 420 483 38,000  Level Boston Center
Tue 10:25:52 PM 43.0222 -74.0844 277° West 420 483 38,000  Level Boston Center
Tue 10:26:53 PM 43.0344 -74.2381 276° West 415 478 38,000  Level Boston Center
Tue 10:27:51 PM 43.0444 -74.3919 275° West 415 478 38,000  Level Boston Center
Tue 10:28:51 PM 43.0564 -74.5428 276° West 409 471 38,000  Level Boston Center
Tue 10:29:52 PM 43.0658 -74.6967 275° West 409 471 38,000  Level Boston Center
Tue 10:30:51 PM 43.0772 -74.8506 276° West 409 471 38,000  Level Boston Center
Tue 10:31:51 PM 43.0867 -74.9989 275° West 404 465 38,000  Level Boston Center
Tue 10:32:51 PM 43.0956 -75.1528 275° West 404 465 38,000  Level Boston Center
Tue 10:33:51 PM 43.1042 -75.3039 275° West 404 465 38,000  Level Boston Center
Tue 10:34:52 PM 43.1150 -75.4581 276° West 409 471 38,000  Level Boston Center
Tue 10:35:52 PM 43.1128 -75.6117 269° West 409 471 38,000  Level Boston Center
Tue 10:36:53 PM 43.0814 -75.7633 254° West 404 465 38,000  Level Boston Center
Tue 10:37:51 PM 43.0497 -75.9153 254° West 410 472 38,000  Level Boston Center
Tue 10:40:18 PM 42.9725 -76.2786 254° West 413 475 38,000  Level Cleveland Center
Tue 10:41:19 PM 42.9383 -76.4269 253° West 412 474 38,000  Level Cleveland Center
Tue 10:42:20 PM 42.9053 -76.5761 253° West 411 473 38,000  Level Cleveland Center
Tue 10:43:21 PM 42.8708 -76.7367 254° West 408 470 38,000  Level Cleveland Center
Tue 10:44:22 PM 42.8372 -76.8842 253° West 409 471 38,000  Level Cleveland Center
Tue 10:45:23 PM 42.8047 -77.0322 253° West 409 471 38,000  Level Cleveland Center
Tue 10:46:24 PM 42.7706 -77.1792 252° West 409 471 38,000  Level Cleveland Center
Tue 10:47:25 PM 42.7306 -77.3225 249° West 408 470 38,000  Level Cleveland Center
Tue 10:48:26 PM 42.6875 -77.4656 248° West 409 471 38,000  Level Cleveland Center
Tue 10:49:27 PM 42.6483 -77.5961 248° West 407 468 38,000  Level Cleveland Center
Tue 10:50:27 PM 42.5967 -77.7658 248° West 406 467 38,000  Level Cleveland Center
Tue 10:51:28 PM 42.5558 -77.9072 249° West 411 473 38,000 -98 Level Cleveland Center
Tue 10:52:29 PM 42.5131 -78.0483 248° West 406 467 37,800 -951 Descending Cleveland Center
Tue 10:54:31 PM 42.4239 -78.3378 247° West 426 490 35,100 -1,246 Descending Cleveland Center
Tue 10:55:32 PM 42.3797 -78.4861 248° West 430 495 34,000 -541 Descending Cleveland Center
Tue 10:56:33 PM 42.3344 -78.6317 247° West 424 488 34,000  Level Cleveland Center
Tue 10:57:34 PM 42.2897 -78.7794 248° West 423 487 34,000  Level Cleveland Center
Tue 10:58:35 PM 42.2394 -78.9436 248° West 426 490 34,000  Level Cleveland Center
Tue 10:59:36 PM 42.1922 -79.0906 247° West 430 495 34,000  Level Cleveland Center
Tue 11:00:37 PM 42.1461 -79.2369 247° West 431 496 34,000  Level Cleveland Center
Tue 11:01:38 PM 42.1003 -79.3833 247° West 429 494 34,000 -590 Level Cleveland Center
Tue 11:02:39 PM 42.0600 -79.5319 250° West 428 493 32,800 -1,672 Descending Cleveland Center
Tue 11:03:40 PM 42.0272 -79.6869 254° West 434 499 30,600 -2,529 Descending Cleveland Center
Tue 11:04:40 PM 41.9919 -79.8472 254° West 446 513 27,700 -3,074 Descending Cleveland Center
Tue 11:05:41 PM 41.9553 -80.0178 254° West 451 519 24,400 -2,902 Descending Cleveland Center
Tue 11:06:42 PM 41.9200 -80.1769 253° West 441 507 21,800 -2,459 Descending Cleveland Center
Tue 11:07:43 PM 41.8878 -80.3236 254° West 412 474 19,400 -2,361 Descending Cleveland Center
Tue 11:08:44 PM 41.8544 -80.4631 252° West 395 455 17,000 -2,410 Descending Cleveland Center
Tue 11:09:45 PM 41.8247 -80.5983 254° West 379 436 14,500 -2,361 Descending Cleveland Center
Tue 11:10:46 PM 41.7947 -80.7278 253° West 365 420 12,200 -2,323 Descending Cleveland Center
Tue 11:11:18 PM 41.7781 -80.8119 255° West 337 388 10,900 -2,160 Descending Cleveland Center
Tue 11:11:36 PM 41.7708 -80.8472 255° West 325 374 10,400 -1,448 Descending Cleveland Center
Tue 11:11:47 PM 41.7636 -80.8656 242° Southwest 334 384 10,200 -1,082 Descending Cleveland Center
Tue 11:12:37 PM 41.7475 -80.9531 256° West 283 326 9,300 -1,100 Descending Cleveland Center
Tue 11:12:47 PM 41.7406 -80.9689 240° Southwest 294 338 9,100 -1,437 Descending Cleveland Center
Tue 11:13:48 PM 41.7194 -81.0633 253° West 267 307 7,600 -1,568 Descending Cleveland Center
Tue 11:14:38 PM 41.7042 -81.1425 256° West 261 300 6,200 -1,672 Descending Cleveland Center
Tue 11:14:49 PM 41.6978 -81.1567 239° Southwest 263 303 5,900 -1,701 Descending Cleveland Center
Tue 11:15:45 PM 41.6806 -81.2453 255° West 257 296 4,300 -1,672 Descending Cleveland Center
Tue 11:15:50 PM 41.6769 -81.2472 202° Southwest 257 296 4,200 -727 Descending Cleveland Center
Tue 11:16:51 PM 41.6539 -81.3431 252° West 257 296 3,500 -689 Descending Cleveland Center

Login

Don't have an account? Register now (free) for customized features, flight alerts, and more!